createdAt,value
2023-02-27T00:00:15.300Z,75.61
2023-02-27T00:02:47.956Z,75.57
2023-02-27T00:05:14.941Z,76.21
2023-02-27T00:07:41.811Z,76.06
2023-02-27T00:10:10.758Z,75.56
2023-02-27T00:12:39.064Z,75.88
2023-02-27T00:15:16.025Z,75.36
2023-02-27T00:17:43.985Z,76.08
2023-02-27T00:20:13.967Z,76.65
2023-02-27T00:22:42.036Z,76.15
2023-02-27T00:25:10.324Z,76.57
2023-02-27T00:27:37.185Z,76.39
2023-02-27T00:30:10.296Z,77.01
2023-02-27T00:32:37.079Z,76.85
2023-02-27T00:35:09.770Z,76.77
2023-02-27T00:37:37.242Z,76.83
2023-02-27T00:40:07.620Z,77.20
2023-02-27T00:42:34.931Z,77.27
2023-02-27T00:45:01.810Z,76.97
2023-02-27T00:47:28.634Z,76.87
2023-02-27T00:49:55.390Z,77.52
2023-02-27T00:52:22.247Z,76.68
2023-02-27T00:54:49.242Z,75.85
2023-02-27T00:57:16.193Z,76.35
2023-02-27T00:59:43.003Z,76.80
2023-02-27T01:02:09.831Z,76.34
2023-02-27T01:04:36.675Z,76.76
2023-02-27T01:07:03.633Z,76.85
2023-02-27T01:09:30.429Z,77.60
2023-02-27T01:11:57.769Z,77.04
2023-02-27T01:14:24.757Z,77.27
2023-02-27T01:16:51.844Z,77.06
2023-02-27T01:19:18.854Z,76.52
2023-02-27T01:21:45.869Z,77.01
2023-02-27T01:24:13.302Z,76.69
2023-02-27T01:26:40.292Z,76.60
2023-02-27T01:29:07.189Z,76.47
2023-02-27T01:31:34.612Z,76.03
2023-02-27T01:34:01.413Z,75.90
2023-02-27T01:36:28.201Z,76.66
2023-02-27T01:38:54.963Z,76.41
2023-02-27T01:41:21.741Z,76.72
2023-02-27T01:44:05.866Z,76.37
2023-02-27T01:46:34.290Z,76.53
2023-02-27T01:49:21.274Z,76.69
2023-02-27T01:51:55.748Z,76.54
2023-02-27T01:54:25.875Z,76.74
2023-02-27T01:56:52.956Z,76.90
2023-02-27T01:59:20.314Z,76.04
2023-02-27T02:01:47.260Z,76.56
2023-02-27T02:04:30.597Z,76.57
2023-02-27T02:07:02.365Z,76.19
2023-02-27T02:09:30.811Z,76.42
2023-02-27T02:11:59.761Z,76.93
2023-02-27T02:14:26.726Z,77.03
2023-02-27T02:17:11.367Z,76.61
2023-02-27T02:20:01.671Z,76.45
2023-02-27T02:22:59.956Z,77.09
2023-02-27T02:25:51.560Z,76.81
2023-02-27T02:28:57.813Z,77.13
2023-02-27T02:32:11.187Z,77.24
2023-02-27T02:35:04.044Z,77.21
2023-02-27T02:37:33.323Z,77.99
2023-02-27T02:40:05.648Z,77.50
2023-02-27T02:42:43.690Z,78.21
2023-02-27T02:45:17.899Z,78.28
2023-02-27T02:48:04.654Z,78.13
2023-02-27T02:50:49.576Z,78.25
2023-02-27T02:53:37.104Z,78.04
2023-02-27T02:56:29.796Z,78.46
2023-02-27T02:59:07.792Z,78.15
2023-02-27T03:01:54.207Z,78.80
2023-02-27T03:04:51.241Z,78.89
2023-02-27T03:08:04.797Z,79.58
2023-02-27T03:10:40.526Z,79.33
2023-02-27T03:13:26.426Z,79.86
2023-02-27T03:16:28.868Z,80.06
2023-02-27T03:19:13.049Z,79.48
2023-02-27T03:22:00.077Z,79.76
2023-02-27T03:24:38.868Z,80.20
2023-02-27T03:27:08.980Z,80.53
2023-02-27T03:29:53.708Z,80.17
2023-02-27T03:32:30.476Z,79.77
2023-02-27T03:34:57.509Z,80.00
2023-02-27T03:38:01.545Z,80.23
2023-02-27T03:40:38.300Z,80.26
2023-02-27T03:43:45.753Z,80.83
2023-02-27T03:46:24.239Z,81.32
2023-02-27T03:48:51.085Z,80.87
2023-02-27T03:51:21.312Z,81.37
2023-02-27T03:54:09.819Z,80.50
2023-02-27T03:56:45.904Z,80.33
2023-02-27T03:59:12.712Z,80.90
2023-02-27T04:01:40.426Z,80.90
2023-02-27T04:04:15.040Z,81.51
2023-02-27T04:07:07.839Z,80.98
2023-02-27T04:10:24.424Z,80.91
2023-02-27T04:13:48.318Z,80.82
2023-02-27T04:16:36.186Z,81.30
2023-02-27T04:19:22.495Z,81.17
2023-02-27T04:22:19.777Z,80.81
2023-02-27T04:25:36.531Z,80.41
2023-02-27T04:28:18.921Z,80.57
2023-02-27T04:31:03.395Z,80.48
2023-02-27T04:33:52.634Z,80.44
2023-02-27T04:36:31.231Z,80.46
2023-02-27T04:39:14.800Z,80.85
2023-02-27T04:41:56.826Z,80.84
2023-02-27T04:44:26.393Z,81.83
2023-02-27T04:46:55.680Z,81.53
2023-02-27T04:49:36.749Z,81.88
2023-02-27T04:52:42.060Z,81.90
2023-02-27T04:55:17.092Z,81.99
2023-02-27T04:57:52.983Z,82.12
2023-02-27T05:00:22.739Z,81.56
2023-02-27T05:02:56.921Z,81.70
2023-02-27T05:05:28.474Z,81.42
2023-02-27T05:08:03.613Z,81.84
2023-02-27T05:11:05.946Z,80.91
2023-02-27T05:13:40.221Z,81.21
2023-02-27T05:16:19.484Z,80.84
2023-02-27T05:18:47.244Z,81.44
2023-02-27T05:21:27.104Z,81.38
2023-02-27T05:23:58.674Z,81.79
2023-02-27T05:26:51.922Z,81.99
2023-02-27T05:29:39.257Z,82.49
2023-02-27T05:32:45.242Z,82.38
2023-02-27T05:35:34.644Z,81.96
2023-02-27T05:38:17.396Z,82.10
2023-02-27T05:40:48.257Z,82.07
2023-02-27T05:43:32.601Z,82.39
2023-02-27T05:46:20.181Z,82.28
2023-02-27T05:48:54.383Z,82.29
2023-02-27T05:51:23.710Z,82.95
2023-02-27T05:53:59.653Z,82.98
2023-02-27T05:56:28.750Z,83.37
2023-02-27T05:59:14.643Z,83.28
2023-02-27T06:01:41.398Z,83.43
2023-02-27T06:04:08.157Z,83.38
2023-02-27T06:06:36.664Z,83.38
2023-02-27T06:09:03.775Z,83.19
2023-02-27T06:11:30.524Z,83.47
2023-02-27T06:13:57.247Z,82.72
2023-02-27T06:16:24.108Z,82.69
2023-02-27T06:18:50.909Z,82.34
2023-02-27T06:21:17.927Z,81.73
2023-02-27T06:23:44.641Z,82.53
2023-02-27T06:26:14.330Z,83.01
2023-02-27T06:28:42.405Z,82.63
2023-02-27T06:31:09.302Z,82.43
2023-02-27T06:33:36.112Z,82.51
2023-02-27T06:36:02.953Z,82.06
2023-02-27T06:38:29.712Z,82.34
2023-02-27T06:40:56.429Z,81.82
2023-02-27T06:43:23.304Z,81.55
2023-02-27T06:45:53.869Z,81.71
2023-02-27T06:48:20.701Z,81.47
2023-02-27T06:50:56.326Z,81.34
2023-02-27T06:53:24.654Z,80.95
2023-02-27T06:55:51.531Z,80.43
2023-02-27T06:58:18.691Z,80.62
2023-02-27T07:00:45.521Z,80.89
2023-02-27T07:03:13.076Z,80.16
2023-02-27T07:05:41.761Z,81.36
2023-02-27T07:08:09.220Z,80.12
2023-02-27T07:10:35.972Z,80.05
2023-02-27T07:13:03.600Z,79.33
2023-02-27T07:15:30.381Z,79.99
2023-02-27T07:17:57.232Z,79.58
2023-02-27T07:20:24.008Z,79.18
2023-02-27T07:22:51.108Z,79.37
2023-02-27T07:25:17.973Z,79.50
2023-02-27T07:27:46.146Z,78.47
2023-02-27T07:30:13.671Z,78.72
2023-02-27T07:32:40.426Z,77.11
2023-02-27T07:35:08.681Z,77.84
2023-02-27T07:37:35.588Z,77.91
2023-02-27T07:40:04.149Z,76.77
2023-02-27T07:42:31.052Z,77.51
2023-02-27T07:44:57.875Z,77.06
2023-02-27T07:47:24.714Z,77.61
2023-02-27T07:49:51.463Z,77.09
2023-02-27T07:52:18.365Z,76.76
2023-02-27T07:54:45.130Z,76.39
2023-02-27T07:57:11.901Z,76.70
2023-02-27T07:59:38.644Z,75.61
2023-02-27T08:02:05.472Z,75.22
2023-02-27T08:04:32.323Z,75.25
2023-02-27T08:06:59.232Z,75.31
2023-02-27T08:09:25.997Z,74.96
2023-02-27T08:11:52.726Z,74.93
2023-02-27T08:14:19.470Z,74.98
2023-02-27T08:16:46.230Z,74.83
2023-02-27T08:19:14.507Z,73.83
2023-02-27T08:21:41.797Z,74.05
2023-02-27T08:24:08.844Z,74.06
2023-02-27T08:26:35.630Z,73.76
2023-02-27T08:29:02.387Z,73.41
2023-02-27T08:31:29.322Z,72.91
2023-02-27T08:34:04.481Z,72.97
2023-02-27T08:36:36.434Z,72.41
2023-02-27T08:39:03.265Z,71.40
2023-02-27T08:41:30.038Z,71.55
2023-02-27T08:43:56.851Z,70.25
2023-02-27T08:46:23.716Z,69.58
2023-02-27T08:48:50.506Z,70.35
2023-02-27T08:51:17.245Z,69.72
2023-02-27T08:53:44.023Z,70.58
2023-02-27T08:56:10.795Z,69.47
2023-02-27T08:58:37.592Z,70.36
2023-02-27T09:01:04.400Z,70.01
2023-02-27T09:03:32.055Z,70.66
2023-02-27T09:06:00.134Z,68.98
2023-02-27T09:08:26.982Z,70.06
2023-02-27T09:10:58.074Z,68.55
2023-02-27T09:13:26.918Z,67.42
2023-02-27T09:15:54.431Z,68.34
2023-02-27T09:18:22.557Z,67.92
2023-02-27T09:20:53.845Z,66.62
2023-02-27T09:23:20.593Z,65.85
2023-02-27T09:25:47.743Z,65.32
2023-02-27T09:28:15.299Z,65.11
2023-02-27T09:30:43.561Z,65.22
2023-02-27T09:33:10.339Z,65.93
2023-02-27T09:35:37.612Z,66.35
2023-02-27T09:38:04.426Z,66.31
2023-02-27T09:40:39.292Z,67.16
2023-02-27T09:43:19.645Z,67.03
2023-02-27T09:45:51.949Z,66.35
2023-02-27T09:49:01.635Z,66.47
2023-02-27T09:51:29.440Z,65.48
2023-02-27T09:54:00.617Z,65.81
2023-02-27T09:56:42.505Z,65.41
2023-02-27T09:59:27.196Z,65.13
2023-02-27T10:02:14.722Z,66.83
2023-02-27T10:04:54.474Z,65.86
2023-02-27T10:08:17.763Z,66.46
2023-02-27T10:11:10.056Z,66.23
2023-02-27T10:14:00.724Z,64.85
2023-02-27T10:16:28.707Z,64.56
2023-02-27T10:19:07.032Z,65.60
2023-02-27T10:21:45.084Z,65.57
2023-02-27T10:24:27.607Z,65.78
2023-02-27T10:26:58.574Z,64.64
2023-02-27T10:29:41.745Z,64.04
2023-02-27T10:32:43.994Z,65.33
2023-02-27T10:35:27.993Z,63.54
2023-02-27T10:38:17.752Z,64.55
2023-02-27T10:40:45.504Z,63.07
2023-02-27T10:43:18.596Z,63.78
2023-02-27T10:45:45.408Z,63.75
2023-02-27T10:48:13.810Z,64.13
2023-02-27T10:50:52.913Z,62.93
2023-02-27T10:53:26.480Z,62.74
2023-02-27T10:55:58.879Z,62.45
2023-02-27T10:58:26.069Z,62.59
2023-02-27T11:01:05.230Z,63.45
2023-02-27T11:03:41.608Z,64.29
2023-02-27T11:06:24.971Z,63.65
2023-02-27T11:09:20.968Z,64.33
2023-02-27T11:11:48.287Z,64.67
2023-02-27T11:14:18.036Z,64.24
2023-02-27T11:17:02.938Z,64.02
2023-02-27T11:19:32.170Z,64.29
2023-02-27T11:22:14.010Z,64.81
2023-02-27T11:24:41.286Z,64.49
2023-02-27T11:27:32.323Z,65.13
2023-02-27T11:30:02.652Z,65.26
2023-02-27T11:32:51.445Z,65.72
2023-02-27T11:35:28.781Z,65.59
2023-02-27T11:38:03.646Z,65.59
2023-02-27T11:40:40.686Z,65.19
2023-02-27T11:43:18.566Z,65.13
2023-02-27T11:46:04.540Z,63.98
2023-02-27T11:48:40.949Z,63.64
2023-02-27T11:51:38.380Z,64.23
2023-02-27T11:54:22.172Z,64.43
2023-02-27T11:57:06.717Z,64.25
2023-02-27T11:59:48.082Z,63.89
2023-02-27T12:02:31.369Z,63.50
2023-02-27T12:05:17.990Z,63.52
2023-02-27T12:08:05.777Z,62.89
2023-02-27T12:11:12.347Z,63.39
2023-02-27T12:13:45.698Z,62.94
2023-02-27T12:16:33.247Z,62.95
2023-02-27T12:19:19.681Z,63.80
2023-02-27T12:21:52.971Z,63.76
2023-02-27T12:24:26.836Z,63.59
2023-02-27T12:27:43.396Z,64.22
2023-02-27T12:30:24.582Z,62.68
2023-02-27T12:33:02.664Z,62.17
2023-02-27T12:35:33.377Z,64.07
2023-02-27T12:38:01.251Z,62.71
2023-02-27T12:40:37.985Z,62.62
2023-02-27T12:43:29.514Z,62.65
2023-02-27T12:46:14.044Z,62.21
2023-02-27T12:48:52.738Z,61.87
2023-02-27T12:51:31.342Z,62.25
2023-02-27T12:54:17.161Z,61.67
2023-02-27T12:57:28.850Z,62.19
2023-02-27T13:00:13.121Z,60.30
2023-02-27T13:03:20.876Z,60.35
2023-02-27T13:06:06.153Z,60.23
2023-02-27T13:08:45.756Z,60.24
2023-02-27T13:11:43.548Z,59.47
2023-02-27T13:14:13.208Z,59.77
2023-02-27T13:17:01.300Z,59.80
2023-02-27T13:19:39.818Z,59.87
2023-02-27T13:22:48.207Z,59.79
2023-02-27T13:25:17.371Z,59.44
2023-02-27T13:28:02.142Z,58.75
2023-02-27T13:31:04.507Z,59.40
2023-02-27T13:33:35.448Z,59.25
2023-02-27T13:36:41.364Z,59.78
2023-02-27T13:40:01.436Z,59.58
2023-02-27T13:42:28.978Z,59.26
2023-02-27T13:45:00.755Z,59.72
2023-02-27T13:47:37.102Z,59.56
2023-02-27T13:50:25.541Z,60.01
2023-02-27T13:52:53.174Z,58.29
2023-02-27T13:55:35.359Z,58.76
2023-02-27T13:58:04.459Z,57.81
2023-02-27T14:00:37.878Z,57.89
2023-02-27T14:03:28.105Z,56.78
2023-02-27T14:06:01.347Z,57.05
2023-02-27T14:08:34.294Z,56.22
2023-02-27T14:11:09.413Z,55.83
2023-02-27T14:13:45.397Z,55.66
2023-02-27T14:16:40.219Z,56.30
2023-02-27T14:19:15.811Z,55.01
2023-02-27T14:21:53.207Z,55.92
2023-02-27T14:24:24.605Z,55.86
2023-02-27T14:26:53.263Z,56.64
2023-02-27T14:29:31.223Z,56.40
2023-02-27T14:32:02.894Z,56.40
2023-02-27T14:34:30.845Z,56.94
2023-02-27T14:37:01.658Z,57.55
2023-02-27T14:39:33.770Z,57.03
2023-02-27T14:42:21.761Z,57.64
2023-02-27T14:44:50.142Z,58.12
2023-02-27T14:47:29.168Z,58.18
2023-02-27T14:49:56.382Z,58.70
2023-02-27T14:52:26.009Z,59.15
2023-02-27T14:54:53.860Z,59.12
2023-02-27T14:57:26.688Z,59.35
2023-02-27T14:59:54.752Z,58.71
2023-02-27T15:02:26.938Z,59.37
2023-02-27T15:05:16.244Z,58.48
2023-02-27T15:07:47.577Z,58.46
2023-02-27T15:10:33.478Z,58.66
2023-02-27T15:13:01.572Z,58.45
2023-02-27T15:15:28.748Z,58.61
2023-02-27T15:17:56.014Z,58.42
2023-02-27T15:20:30.211Z,59.03
2023-02-27T15:23:18.374Z,58.13
2023-02-27T15:25:45.196Z,59.11
2023-02-27T15:28:26.009Z,57.87
2023-02-27T15:30:57.279Z,57.47
2023-02-27T15:33:29.988Z,57.94
2023-02-27T15:35:57.000Z,57.52
2023-02-27T15:38:30.742Z,57.87
2023-02-27T15:40:59.882Z,58.12
2023-02-27T15:43:28.416Z,58.68
2023-02-27T15:45:55.662Z,59.01
2023-02-27T15:48:22.773Z,59.11
2023-02-27T15:50:54.876Z,59.66
2023-02-27T15:53:25.192Z,60.31
2023-02-27T15:55:59.416Z,59.50
2023-02-27T15:58:30.324Z,59.81
2023-02-27T16:01:13.973Z,59.49
2023-02-27T16:03:45.966Z,59.85
2023-02-27T16:06:19.763Z,60.07
2023-02-27T16:09:00.484Z,60.57
2023-02-27T16:11:37.370Z,60.31
2023-02-27T16:14:06.124Z,60.42
2023-02-27T16:16:38.826Z,60.25
2023-02-27T16:19:24.860Z,60.28
2023-02-27T16:22:16.023Z,60.62
2023-02-27T16:24:43.686Z,60.26
2023-02-27T16:27:27.099Z,59.77
2023-02-27T16:29:57.536Z,58.98
2023-02-27T16:32:30.767Z,58.95
2023-02-27T16:35:07.513Z,59.48
2023-02-27T16:37:40.449Z,59.81
2023-02-27T16:40:17.653Z,59.31
2023-02-27T16:42:45.157Z,59.33
2023-02-27T16:45:22.392Z,59.08
2023-02-27T16:47:51.933Z,58.76
2023-02-27T16:50:29.051Z,58.77
2023-02-27T16:52:57.575Z,59.37
2023-02-27T16:55:25.658Z,60.05
2023-02-27T16:57:52.991Z,60.37
2023-02-27T17:00:22.677Z,60.74
2023-02-27T17:02:49.778Z,61.09
2023-02-27T17:05:17.476Z,60.99
2023-02-27T17:07:44.881Z,61.62
2023-02-27T17:10:16.882Z,61.14
2023-02-27T17:12:44.183Z,61.45
2023-02-27T17:15:11.414Z,61.57
2023-02-27T17:17:38.199Z,61.14
2023-02-27T17:20:07.456Z,60.94
2023-02-27T17:22:42.933Z,61.84
2023-02-27T17:25:10.622Z,62.07
2023-02-27T17:27:37.669Z,61.84
2023-02-27T17:30:06.644Z,62.08
2023-02-27T17:32:34.681Z,63.35
2023-02-27T17:35:01.457Z,63.09
2023-02-27T17:37:28.265Z,62.43
2023-02-27T17:39:55.502Z,62.82
2023-02-27T17:42:25.679Z,62.91
2023-02-27T17:44:52.482Z,63.59
2023-02-27T17:47:19.562Z,63.45
2023-02-27T17:49:46.407Z,63.96
2023-02-27T17:52:13.237Z,64.55
2023-02-27T17:54:40.146Z,64.65
2023-02-27T17:57:09.535Z,64.43
2023-02-27T17:59:36.479Z,64.66
2023-02-27T18:02:03.245Z,64.50
2023-02-27T18:04:30.020Z,64.37
2023-02-27T18:06:56.807Z,64.95
2023-02-27T18:09:23.559Z,64.58
2023-02-27T18:11:50.382Z,64.70
2023-02-27T18:14:17.154Z,64.51
2023-02-27T18:16:44.504Z,64.72
2023-02-27T18:19:11.413Z,64.58
2023-02-27T18:21:38.255Z,65.01
2023-02-27T18:24:05.401Z,65.17
2023-02-27T18:26:33.164Z,65.61
2023-02-27T18:29:07.625Z,65.71
2023-02-27T18:31:42.946Z,65.93
2023-02-27T18:34:10.772Z,65.25
2023-02-27T18:36:38.536Z,65.62
2023-02-27T18:39:06.279Z,65.35
2023-02-27T18:41:33.922Z,65.96
2023-02-27T18:44:00.986Z,65.84
2023-02-27T18:46:28.657Z,66.71
2023-02-27T18:48:55.903Z,66.74
2023-02-27T18:51:22.792Z,66.13
2023-02-27T18:53:50.600Z,65.75
2023-02-27T18:56:22.941Z,65.92
2023-02-27T18:58:50.722Z,66.22
2023-02-27T19:01:27.395Z,66.19
2023-02-27T19:04:00.314Z,66.38
2023-02-27T19:06:28.374Z,66.18
2023-02-27T19:08:55.440Z,66.45
2023-02-27T19:11:25.204Z,66.06
2023-02-27T19:13:52.472Z,66.41
2023-02-27T19:16:19.313Z,66.34
2023-02-27T19:18:46.052Z,66.34
2023-02-27T19:21:12.819Z,66.34
2023-02-27T19:23:39.599Z,66.48
2023-02-27T19:26:06.896Z,66.58
2023-02-27T19:28:33.912Z,66.18
2023-02-27T19:31:06.120Z,66.13
2023-02-27T19:33:32.881Z,66.06
2023-02-27T19:35:59.975Z,64.96
2023-02-27T19:38:26.732Z,64.78
2023-02-27T19:40:53.568Z,64.95
2023-02-27T19:43:20.349Z,64.69
2023-02-27T19:45:47.065Z,64.94
2023-02-27T19:48:18.942Z,65.11
2023-02-27T19:50:46.454Z,64.81
2023-02-27T19:53:13.595Z,65.65
2023-02-27T19:55:40.467Z,65.76
2023-02-27T19:58:07.193Z,66.42
2023-02-27T20:00:34.069Z,67.13
2023-02-27T20:03:00.886Z,68.76
2023-02-27T20:05:27.712Z,67.91
2023-02-27T20:07:54.473Z,69.00
2023-02-27T20:10:21.344Z,68.52
2023-02-27T20:12:48.607Z,68.27
2023-02-27T20:15:15.382Z,68.98
2023-02-27T20:20:09.937Z,69.17
2023-02-27T20:22:38.225Z,69.48
2023-02-27T20:25:05.214Z,69.18
2023-02-27T20:27:33.763Z,70.83
2023-02-27T20:30:01.411Z,71.11
2023-02-27T20:32:28.384Z,70.79
2023-02-27T20:34:56.773Z,70.58
2023-02-27T20:37:23.764Z,70.13
2023-02-27T20:39:50.705Z,71.13
2023-02-27T20:42:17.439Z,71.04
2023-02-27T20:44:44.180Z,71.52
2023-02-27T20:47:11.220Z,71.36
2023-02-27T20:49:38.920Z,71.06
2023-02-27T20:52:05.660Z,71.12
2023-02-27T20:54:32.713Z,70.90
2023-02-27T20:56:59.476Z,71.12
2023-02-27T20:59:26.441Z,71.57
2023-02-27T21:01:53.720Z,72.05
2023-02-27T21:04:24.816Z,72.71
2023-02-27T21:06:52.305Z,72.66
2023-02-27T21:09:19.077Z,74.89
2023-02-27T21:11:45.823Z,75.14
2023-02-27T21:14:12.699Z,75.97
2023-02-27T21:16:40.688Z,75.90
2023-02-27T21:19:08.377Z,76.04
2023-02-27T21:21:36.749Z,75.90
2023-02-27T21:24:04.493Z,76.09
2023-02-27T21:26:37.891Z,77.22
2023-02-27T21:29:12.576Z,77.22
2023-02-27T21:31:41.493Z,76.63
2023-02-27T21:34:14.280Z,76.69
2023-02-27T21:36:43.390Z,77.80
2023-02-27T21:39:16.205Z,77.13
2023-02-27T21:41:44.308Z,77.76
2023-02-27T21:44:14.469Z,77.59
2023-02-27T21:46:41.483Z,77.68
2023-02-27T21:49:08.242Z,78.21
2023-02-27T21:51:40.964Z,77.47
2023-02-27T21:54:11.629Z,77.48
2023-02-27T21:56:39.705Z,78.40
2023-02-27T21:59:06.874Z,78.16
2023-02-27T22:01:34.405Z,78.88
2023-02-27T22:04:02.049Z,79.20
2023-02-27T22:06:33.950Z,79.17
2023-02-27T22:09:05.154Z,79.95
2023-02-27T22:11:33.040Z,80.40
2023-02-27T22:13:59.975Z,80.16
2023-02-27T22:16:27.926Z,80.70
2023-02-27T22:18:54.712Z,81.49
2023-02-27T22:21:25.407Z,80.92
2023-02-27T22:23:53.299Z,81.44
2023-02-27T22:26:24.375Z,80.83
2023-02-27T22:28:52.780Z,80.66
2023-02-27T22:31:23.529Z,80.73
2023-02-27T22:33:55.147Z,81.84
2023-02-27T22:36:25.796Z,81.59
2023-02-27T22:38:53.148Z,80.84
2023-02-27T22:41:33.590Z,80.77
2023-02-27T22:44:01.956Z,80.81
2023-02-27T22:46:34.892Z,80.36
2023-02-27T22:49:08.269Z,80.59
2023-02-27T22:51:35.686Z,80.61
2023-02-27T22:54:04.941Z,81.05
2023-02-27T22:56:32.020Z,82.03
2023-02-27T22:58:59.532Z,82.82
2023-02-27T23:01:30.289Z,82.36
2023-02-27T23:04:04.156Z,83.11
2023-02-27T23:06:35.031Z,82.38
2023-02-27T23:09:03.249Z,82.57
2023-02-27T23:11:30.441Z,82.64
2023-02-27T23:13:57.742Z,82.55
2023-02-27T23:16:25.071Z,81.93
2023-02-27T23:18:57.701Z,81.99
2023-02-27T23:21:34.290Z,82.69
2023-02-27T23:24:13.856Z,82.64
2023-02-27T23:26:44.542Z,81.64
2023-02-27T23:29:11.856Z,80.92
2023-02-27T23:31:39.415Z,80.89
2023-02-27T23:34:06.799Z,81.25
2023-02-27T23:36:37.970Z,82.44
2023-02-27T23:39:06.352Z,81.27
2023-02-27T23:41:33.596Z,81.23
2023-02-27T23:44:01.591Z,81.77
2023-02-27T23:46:30.661Z,82.24
2023-02-27T23:49:01.142Z,82.75
2023-02-27T23:51:30.706Z,82.90
2023-02-27T23:53:57.984Z,82.63
2023-02-27T23:56:29.108Z,83.20
2023-02-27T23:59:00.495Z,82.48
